createdAt,value
2019-03-22T00:01:18.104Z,0.60
2019-03-22T00:03:46.556Z,0.40
2019-03-22T00:06:14.896Z,0.50
2019-03-22T00:08:43.044Z,0.67
2019-03-22T00:11:11.399Z,0.47
2019-03-22T00:13:39.753Z,0.50
2019-03-22T00:16:33.601Z,1.23
2019-03-22T00:19:02.128Z,0.83
2019-03-22T00:21:30.360Z,0.50
2019-03-22T00:23:58.519Z,0.73
2019-03-22T00:26:26.832Z,0.70
2019-03-22T00:28:55.160Z,0.70
2019-03-22T00:31:23.288Z,0.70
2019-03-22T00:33:51.647Z,0.47
2019-03-22T00:36:19.972Z,1.00
2019-03-22T00:38:48.100Z,0.53
2019-03-22T00:41:16.517Z,0.83
2019-03-22T00:43:44.847Z,0.50
2019-03-22T00:46:12.972Z,0.60
2019-03-22T00:48:41.316Z,0.70
2019-03-22T00:51:09.730Z,0.70
2019-03-22T00:53:38.136Z,0.70
2019-03-22T00:56:06.465Z,0.90
2019-03-22T00:58:34.537Z,0.90
2019-03-22T01:01:02.837Z,0.77
2019-03-22T01:03:30.999Z,0.70
2019-03-22T01:05:59.128Z,0.90
2019-03-22T01:08:27.505Z,0.83
2019-03-22T01:10:55.772Z,1.00
2019-03-22T01:13:24.228Z,0.80
2019-03-22T01:15:52.596Z,1.10
2019-03-22T01:18:20.924Z,0.77
2019-03-22T01:20:49.260Z,0.97
2019-03-22T01:23:17.676Z,0.70
2019-03-22T01:25:46.027Z,0.80
2019-03-22T01:28:14.467Z,0.77
2019-03-22T01:30:42.778Z,0.70
2019-03-22T01:33:10.957Z,0.70
2019-03-22T01:35:39.290Z,1.00
2019-03-22T01:38:07.653Z,0.70
2019-03-22T01:40:35.679Z,0.77
2019-03-22T01:43:03.820Z,0.50
2019-03-22T01:45:32.163Z,0.70
2019-03-22T01:48:00.484Z,0.80
2019-03-22T01:50:28.917Z,0.93
2019-03-22T01:52:57.327Z,0.80
2019-03-22T01:55:25.643Z,0.57
2019-03-22T01:57:54.150Z,0.47
2019-03-22T02:00:22.391Z,0.87
2019-03-22T02:02:50.531Z,0.93
2019-03-22T02:05:18.883Z,0.70
2019-03-22T02:07:47.023Z,0.67
2019-03-22T02:10:15.194Z,0.80
2019-03-22T02:12:43.439Z,0.83
2019-03-22T02:15:11.878Z,0.70
2019-03-22T02:17:40.230Z,0.90
2019-03-22T02:20:08.680Z,0.80
2019-03-22T02:22:36.941Z,0.60
2019-03-22T02:25:05.528Z,0.50
2019-03-22T02:27:33.952Z,0.80
2019-03-22T02:30:02.101Z,0.80
2019-03-22T02:32:30.421Z,0.50
2019-03-22T02:34:58.841Z,1.00
2019-03-22T02:37:27.167Z,1.10
2019-03-22T02:39:55.585Z,0.67
2019-03-22T02:42:23.893Z,0.90
2019-03-22T02:44:52.324Z,0.90
2019-03-22T02:47:20.670Z,0.87
2019-03-22T02:49:48.805Z,0.70
2019-03-22T02:52:17.100Z,0.90
2019-03-22T02:54:45.236Z,1.00
2019-03-22T02:57:13.548Z,0.87
2019-03-22T02:59:41.725Z,0.87
2019-03-22T03:02:10.044Z,0.80
2019-03-22T03:04:38.484Z,0.77
2019-03-22T03:07:06.798Z,1.10
2019-03-22T03:09:34.925Z,1.07
2019-03-22T03:12:03.268Z,0.73
2019-03-22T03:14:31.580Z,1.03
2019-03-22T03:16:59.750Z,0.70
2019-03-22T03:19:27.995Z,1.10
2019-03-22T03:21:56.113Z,0.90
2019-03-22T03:24:24.355Z,0.80
2019-03-22T03:26:52.450Z,0.97
2019-03-22T03:29:20.796Z,0.80
2019-03-22T03:31:48.997Z,1.17
2019-03-22T03:34:17.454Z,1.07
2019-03-22T03:36:45.861Z,0.63
2019-03-22T03:39:14.216Z,1.07
2019-03-22T03:41:42.553Z,0.90
2019-03-22T03:44:10.989Z,1.07
2019-03-22T03:46:39.361Z,1.20
2019-03-22T03:49:07.686Z,0.83
2019-03-22T03:51:35.919Z,0.90
2019-03-22T03:54:04.164Z,1.03
2019-03-22T03:56:32.498Z,0.87
2019-03-22T03:59:00.736Z,1.07
2019-03-22T04:01:28.985Z,0.90
2019-03-22T04:03:57.393Z,1.00
2019-03-22T04:06:25.736Z,0.83
2019-03-22T04:08:54.104Z,0.90
2019-03-22T04:11:22.530Z,1.07
2019-03-22T04:13:50.891Z,1.17
2019-03-22T04:16:19.223Z,0.73
2019-03-22T04:18:47.365Z,1.00
2019-03-22T04:21:15.681Z,0.80
2019-03-22T04:23:44.104Z,0.87
2019-03-22T04:26:12.415Z,0.80
2019-03-22T04:28:40.840Z,0.80
2019-03-22T04:31:09.177Z,0.90
2019-03-22T04:33:37.599Z,1.03
2019-03-22T04:36:05.664Z,1.33
2019-03-22T04:38:33.777Z,0.80
2019-03-22T04:41:02.116Z,0.80
2019-03-22T04:43:30.345Z,0.80
2019-03-22T04:45:59.076Z,1.10
2019-03-22T04:48:29.640Z,0.93
2019-03-22T04:50:59.263Z,1.20
2019-03-22T04:53:29.560Z,1.07
2019-03-22T04:56:00.583Z,1.00
2019-03-22T04:58:28.810Z,0.70
2019-03-22T05:00:58.280Z,1.17
2019-03-22T05:03:27.207Z,1.13
2019-03-22T05:05:56.292Z,0.87
2019-03-22T05:08:25.012Z,0.77
2019-03-22T05:10:54.599Z,1.17
2019-03-22T05:13:24.142Z,0.70
2019-03-22T05:15:52.343Z,0.80
2019-03-22T05:18:21.197Z,0.90
2019-03-22T05:20:50.344Z,0.90
2019-03-22T05:23:18.892Z,0.93
2019-03-22T05:25:48.012Z,1.00
2019-03-22T05:28:16.549Z,0.63
2019-03-22T05:31:00.735Z,0.67
2019-03-22T05:33:28.756Z,0.80
2019-03-22T05:35:57.183Z,0.80
2019-03-22T05:38:25.540Z,1.13
2019-03-22T05:40:53.984Z,0.90
2019-03-22T05:43:22.370Z,0.97
2019-03-22T05:45:50.810Z,0.87
2019-03-22T05:48:19.049Z,1.00
2019-03-22T05:50:47.499Z,0.63
2019-03-22T05:53:15.872Z,0.77
2019-03-22T05:55:44.187Z,0.77
2019-03-22T05:58:12.499Z,0.70
2019-03-22T06:00:40.628Z,0.80
2019-03-22T06:03:09.060Z,0.80
2019-03-22T06:05:37.420Z,0.70
2019-03-22T06:08:05.748Z,0.73
2019-03-22T06:10:33.884Z,1.10
2019-03-22T06:13:02.225Z,1.10
2019-03-22T06:15:30.663Z,0.80
2019-03-22T06:17:59.015Z,0.67
2019-03-22T06:20:27.352Z,1.00
2019-03-22T06:22:55.887Z,1.00
2019-03-22T06:25:24.116Z,0.80
2019-03-22T06:27:52.464Z,0.97
2019-03-22T06:30:20.815Z,0.60
2019-03-22T06:32:49.056Z,0.80
2019-03-22T06:35:17.273Z,1.10
2019-03-22T06:37:45.718Z,0.63
2019-03-22T06:40:13.969Z,0.80
2019-03-22T06:42:42.481Z,0.80
2019-03-22T06:45:10.832Z,0.80
2019-03-22T06:47:39.144Z,1.10
2019-03-22T06:50:07.409Z,1.27
2019-03-22T06:52:35.661Z,0.87
2019-03-22T06:55:04.223Z,1.00
2019-03-22T06:57:32.393Z,0.90
2019-03-22T07:00:06.288Z,1.33
2019-03-22T07:02:30.736Z,0.90
2019-03-22T07:04:59.062Z,1.20
2019-03-22T07:07:27.497Z,0.80
2019-03-22T07:09:55.541Z,1.10
2019-03-22T07:12:23.879Z,1.20
2019-03-22T07:14:52.338Z,1.00
2019-03-22T07:17:20.684Z,0.97
2019-03-22T07:19:49.012Z,1.13
2019-03-22T07:22:17.120Z,1.00
2019-03-22T07:24:45.532Z,1.30
2019-03-22T07:27:13.564Z,1.10
2019-03-22T07:29:42.038Z,1.30
2019-03-22T07:32:10.356Z,1.37
2019-03-22T07:34:38.667Z,1.20
2019-03-22T07:37:06.800Z,1.20
2019-03-22T07:39:35.128Z,1.30
2019-03-22T07:42:03.596Z,1.33
2019-03-22T07:44:31.899Z,1.30
2019-03-22T07:47:00.373Z,1.20
2019-03-22T07:49:28.639Z,1.37
2019-03-22T07:51:57.084Z,1.20
2019-03-22T07:54:25.416Z,1.40
2019-03-22T07:56:53.536Z,1.33
2019-03-22T07:59:21.877Z,1.00
2019-03-22T08:01:50.002Z,1.40
2019-03-22T08:04:18.370Z,1.37
2019-03-22T08:06:46.430Z,1.07
2019-03-22T08:09:14.775Z,1.30
2019-03-22T08:11:42.881Z,1.30
2019-03-22T08:14:11.193Z,1.20
2019-03-22T08:16:39.609Z,1.43
2019-03-22T08:19:07.927Z,1.20
2019-03-22T08:21:36.083Z,1.40
2019-03-22T08:24:04.382Z,1.40
2019-03-22T08:26:32.830Z,1.10
2019-03-22T08:29:01.171Z,0.90
2019-03-22T08:31:29.625Z,1.20
2019-03-22T08:33:57.925Z,1.10
2019-03-22T08:36:26.380Z,1.30
2019-03-22T08:38:54.707Z,1.30
2019-03-22T08:41:23.948Z,1.20
2019-03-22T08:43:52.386Z,1.37
2019-03-22T08:46:20.787Z,1.30
2019-03-22T08:48:49.119Z,1.40
2019-03-22T08:51:17.297Z,1.43
2019-03-22T08:53:55.255Z,1.37
2019-03-22T08:56:15.824Z,1.27
2019-03-22T08:58:44.140Z,1.40
2019-03-22T09:01:12.260Z,1.73
2019-03-22T09:03:40.637Z,1.70
2019-03-22T09:06:08.802Z,1.50
2019-03-22T09:08:37.087Z,1.43
2019-03-22T09:11:05.749Z,1.23
2019-03-22T09:13:33.970Z,1.40
2019-03-22T09:16:02.207Z,1.33
2019-03-22T09:18:30.710Z,1.37
2019-03-22T09:20:59.005Z,1.40
2019-03-22T09:23:27.136Z,1.20
2019-03-22T09:25:55.469Z,1.17
2019-03-22T09:28:23.621Z,1.40
2019-03-22T09:30:51.868Z,1.10
2019-03-22T09:33:20.091Z,1.50
2019-03-22T09:35:48.292Z,1.20
2019-03-22T09:38:16.455Z,1.20
2019-03-22T09:40:44.728Z,1.27
2019-03-22T09:43:13.144Z,1.30
2019-03-22T09:45:42.072Z,1.00
2019-03-22T09:48:10.263Z,1.10
2019-03-22T09:50:38.317Z,1.20
2019-03-22T09:53:06.696Z,1.60
2019-03-22T09:55:35.043Z,1.30
2019-03-22T09:58:03.050Z,1.30
2019-03-22T10:00:32.464Z,1.30
2019-03-22T10:03:01.278Z,1.60
2019-03-22T10:05:29.490Z,1.10
2019-03-22T10:07:57.934Z,1.23
2019-03-22T10:10:26.211Z,1.03
2019-03-22T10:12:54.372Z,1.10
2019-03-22T10:15:22.701Z,1.00
2019-03-22T10:17:51.100Z,0.97
2019-03-22T10:20:19.457Z,1.23
2019-03-22T10:22:47.768Z,1.40
2019-03-22T10:25:15.897Z,1.43
2019-03-22T10:27:43.956Z,1.20
2019-03-22T10:30:12.380Z,1.23
2019-03-22T10:32:40.675Z,1.20
2019-03-22T10:35:08.795Z,1.10
2019-03-22T10:37:36.841Z,1.40
2019-03-22T10:40:05.809Z,1.40
2019-03-22T10:42:33.911Z,1.40
2019-03-22T10:45:02.402Z,1.30
2019-03-22T10:47:30.738Z,1.50
2019-03-22T10:49:58.822Z,1.50
2019-03-22T10:52:26.971Z,1.30
2019-03-22T10:54:55.287Z,1.40
2019-03-22T10:59:59.932Z,1.33
2019-03-22T11:02:28.348Z,1.30
2019-03-22T11:04:56.380Z,1.50
2019-03-22T11:07:24.441Z,1.53
2019-03-22T11:12:16.277Z,1.13
2019-03-22T11:14:45.739Z,1.17
2019-03-22T11:17:15.886Z,1.60
2019-03-22T11:19:44.126Z,1.60
2019-03-22T11:22:12.465Z,1.27
2019-03-22T11:24:40.648Z,1.10
2019-03-22T11:27:08.902Z,1.10
2019-03-22T11:29:42.253Z,1.20
2019-03-22T11:32:12.849Z,1.30
2019-03-22T11:34:40.736Z,1.30
2019-03-22T11:37:09.353Z,1.10
2019-03-22T11:39:37.669Z,1.53
2019-03-22T11:42:06.020Z,1.30
2019-03-22T11:44:34.367Z,1.20
2019-03-22T11:47:02.538Z,1.00
2019-03-22T11:49:30.817Z,1.30
2019-03-22T11:51:59.157Z,1.40
2019-03-22T11:54:27.227Z,1.23
2019-03-22T11:56:55.555Z,1.20
2019-03-22T11:59:23.784Z,1.33
2019-03-22T12:01:52.024Z,1.20
2019-03-22T12:04:20.228Z,1.33
2019-03-22T12:06:48.539Z,1.30
2019-03-22T12:09:17.005Z,1.20
2019-03-22T12:11:45.243Z,1.30
2019-03-22T12:14:13.577Z,1.47
2019-03-22T12:16:41.771Z,1.27
2019-03-22T12:19:11.508Z,1.50
2019-03-22T12:21:40.004Z,1.27
2019-03-22T12:24:08.409Z,2.13
2019-03-22T12:26:36.831Z,1.40
2019-03-22T12:29:05.249Z,1.50
2019-03-22T12:31:33.518Z,1.53
2019-03-22T12:34:04.103Z,1.50
2019-03-22T12:36:32.046Z,1.60
2019-03-22T12:39:00.500Z,1.57
2019-03-22T12:41:28.655Z,1.30
2019-03-22T12:43:56.920Z,1.40
2019-03-22T12:46:25.132Z,1.33
2019-03-22T12:48:53.392Z,1.40
2019-03-22T12:51:21.599Z,0.93
2019-03-22T12:53:49.888Z,1.10
2019-03-22T12:56:18.277Z,1.53
2019-03-22T12:58:46.636Z,1.60
2019-03-22T13:01:15.025Z,1.10
2019-03-22T13:03:43.380Z,1.40
2019-03-22T13:06:11.757Z,1.30
2019-03-22T13:08:39.935Z,1.40
2019-03-22T13:11:10.364Z,1.40
2019-03-22T13:13:38.693Z,1.53
2019-03-22T13:16:06.882Z,1.73
2019-03-22T13:18:35.044Z,1.40
2019-03-22T13:21:03.230Z,1.33
2019-03-22T13:23:31.461Z,1.53
2019-03-22T13:25:59.657Z,1.33
2019-03-22T13:28:27.825Z,1.47
2019-03-22T13:30:55.999Z,1.40
2019-03-22T13:33:24.143Z,1.47
2019-03-22T13:35:52.551Z,1.30
2019-03-22T13:38:20.759Z,1.33
2019-03-22T13:40:49.196Z,1.30
2019-03-22T13:43:17.662Z,1.07
2019-03-22T13:45:46.077Z,1.20
2019-03-22T13:48:14.348Z,1.27
2019-03-22T13:50:42.529Z,1.10
2019-03-22T13:53:10.904Z,1.00
2019-03-22T13:55:39.257Z,1.10
2019-03-22T13:58:07.617Z,1.30
2019-03-22T14:00:35.938Z,1.30
2019-03-22T14:03:04.099Z,1.10
2019-03-22T14:05:32.378Z,0.93
2019-03-22T14:08:01.160Z,1.00
2019-03-22T14:10:31.807Z,1.10
2019-03-22T14:13:00.270Z,1.20
2019-03-22T14:15:28.632Z,1.00
2019-03-22T14:17:56.903Z,0.97
2019-03-22T14:20:25.095Z,0.90
2019-03-22T14:22:53.995Z,1.10
2019-03-22T14:25:22.491Z,1.00
2019-03-22T14:27:50.883Z,1.00
2019-03-22T14:30:19.367Z,1.03
2019-03-22T14:32:47.669Z,1.00
2019-03-22T14:35:15.950Z,0.97
2019-03-22T14:37:44.522Z,1.03
2019-03-22T14:40:15.746Z,0.87
2019-03-22T14:42:43.093Z,0.80
2019-03-22T14:45:11.586Z,1.13
2019-03-22T14:47:39.802Z,0.90
2019-03-22T14:50:08.304Z,0.90
2019-03-22T14:52:36.725Z,0.93
2019-03-22T14:55:05.991Z,1.20
2019-03-22T14:57:48.688Z,0.80
2019-03-22T15:00:11.004Z,1.10
2019-03-22T15:02:39.214Z,0.90
2019-03-22T15:05:07.579Z,0.70
2019-03-22T15:07:35.864Z,1.10
2019-03-22T15:10:04.352Z,1.33
2019-03-22T15:12:32.634Z,1.10
2019-03-22T15:15:08.583Z,0.90
2019-03-22T15:18:02.070Z,1.27
2019-03-22T15:20:48.509Z,1.03
2019-03-22T15:23:42.493Z,1.10
2019-03-22T15:26:29.010Z,0.87
2019-03-22T15:29:16.340Z,0.83
2019-03-22T15:32:12.863Z,1.00
2019-03-22T15:35:00.630Z,1.00
2019-03-22T15:37:48.256Z,1.13
2019-03-22T15:40:16.464Z,1.40
2019-03-22T15:42:44.888Z,1.00
2019-03-22T15:45:13.247Z,0.90
2019-03-22T15:47:41.488Z,1.00
2019-03-22T15:50:11.388Z,0.80
2019-03-22T15:52:39.591Z,0.90
2019-03-22T15:55:07.814Z,0.83
2019-03-22T15:57:36.072Z,0.70
2019-03-22T16:00:05.429Z,0.93
2019-03-22T16:02:33.744Z,0.90
2019-03-22T16:05:01.923Z,0.60
2019-03-22T16:07:30.201Z,0.80
2019-03-22T16:09:58.535Z,0.73
2019-03-22T16:12:26.770Z,0.90
2019-03-22T16:14:55.075Z,1.00
2019-03-22T16:17:23.460Z,0.83
2019-03-22T16:19:52.625Z,0.73
2019-03-22T16:22:20.757Z,0.77
2019-03-22T16:24:49.076Z,0.70
2019-03-22T16:27:17.537Z,0.63
2019-03-22T16:29:45.675Z,0.73
2019-03-22T16:32:13.841Z,0.60
2019-03-22T16:34:41.964Z,1.00
2019-03-22T16:37:10.382Z,0.80
2019-03-22T16:39:38.814Z,1.10
2019-03-22T16:42:06.963Z,0.80
2019-03-22T16:44:35.188Z,1.00
2019-03-22T16:47:03.616Z,1.10
2019-03-22T16:49:31.947Z,0.77
2019-03-22T16:52:00.081Z,0.87
2019-03-22T16:54:28.138Z,0.80
2019-03-22T16:56:56.460Z,0.80
2019-03-22T16:59:24.580Z,0.87
2019-03-22T17:01:54.436Z,1.00
2019-03-22T17:04:22.536Z,0.90
2019-03-22T17:06:50.652Z,0.97
2019-03-22T17:09:18.967Z,0.70
2019-03-22T17:11:47.109Z,0.80
2019-03-22T17:14:15.504Z,0.90
2019-03-22T17:16:43.867Z,1.10
2019-03-22T17:19:12.083Z,1.00
2019-03-22T17:21:40.327Z,0.90
2019-03-22T17:24:08.440Z,1.00
2019-03-22T17:26:36.781Z,1.00
2019-03-22T17:29:05.103Z,1.00
2019-03-22T17:31:33.299Z,1.17
2019-03-22T17:34:01.571Z,0.90
2019-03-22T17:36:30.015Z,1.13
2019-03-22T17:38:58.352Z,1.07
2019-03-22T17:41:26.373Z,0.93
2019-03-22T17:43:54.537Z,1.27
2019-03-22T17:46:22.863Z,0.93
2019-03-22T17:48:50.883Z,0.93
2019-03-22T17:51:18.995Z,1.10
2019-03-22T17:53:47.243Z,1.33
2019-03-22T17:56:15.480Z,0.77
2019-03-22T17:58:43.623Z,1.03
2019-03-22T18:01:11.672Z,0.90
2019-03-22T18:03:40.015Z,0.70
2019-03-22T18:06:08.137Z,0.70
2019-03-22T18:08:37.329Z,0.70
2019-03-22T18:11:05.444Z,0.73
2019-03-22T18:13:33.767Z,0.93
2019-03-22T18:16:02.199Z,0.57
2019-03-22T18:18:30.336Z,0.90
2019-03-22T18:20:58.554Z,1.17
2019-03-22T18:23:35.410Z,0.80
2019-03-22T18:25:57.308Z,0.90
2019-03-22T18:28:25.612Z,1.10
2019-03-22T18:30:53.953Z,1.03
2019-03-22T18:33:22.074Z,1.23
2019-03-22T18:35:50.380Z,0.90
2019-03-22T18:38:18.511Z,1.30
2019-03-22T18:40:46.921Z,1.00
2019-03-22T18:43:14.941Z,0.90
2019-03-22T18:45:43.251Z,1.20
2019-03-22T18:48:11.381Z,1.00
2019-03-22T18:50:39.926Z,1.10
2019-03-22T18:53:08.124Z,0.97
2019-03-22T18:55:36.532Z,1.00
2019-03-22T18:58:04.580Z,0.90
2019-03-22T19:00:32.715Z,1.80
2019-03-22T19:03:00.741Z,1.50
2019-03-22T19:05:28.872Z,1.40
2019-03-22T19:07:56.908Z,1.37
2019-03-22T19:10:24.932Z,1.37
2019-03-22T19:12:53.060Z,1.83
2019-03-22T19:15:21.264Z,1.60
2019-03-22T19:17:49.499Z,1.43
2019-03-22T19:20:17.736Z,1.33
2019-03-22T19:22:46.004Z,1.47
2019-03-22T19:25:14.568Z,0.93
2019-03-22T19:27:42.980Z,1.03
2019-03-22T19:30:11.392Z,1.30
2019-03-22T19:32:39.728Z,1.27
2019-03-22T19:35:08.177Z,1.30
2019-03-22T19:37:36.508Z,1.07
2019-03-22T19:40:05.589Z,1.30
2019-03-22T19:42:33.615Z,1.07
2019-03-22T19:45:02.039Z,1.00
2019-03-22T19:47:30.360Z,1.00
2019-03-22T19:49:58.544Z,0.87
2019-03-22T19:52:26.768Z,0.97
2019-03-22T19:54:54.903Z,0.80
2019-03-22T19:57:23.041Z,1.00
2019-03-22T19:59:51.355Z,0.80
2019-03-22T20:02:19.779Z,1.10
2019-03-22T20:04:47.900Z,0.87
2019-03-22T20:07:16.222Z,1.30
2019-03-22T20:09:44.564Z,0.90
2019-03-22T20:12:13.000Z,1.03
2019-03-22T20:14:41.388Z,1.00
2019-03-22T20:17:09.699Z,1.20
2019-03-22T20:19:37.844Z,0.90
2019-03-22T20:22:05.951Z,1.30
2019-03-22T20:24:34.279Z,0.90
2019-03-22T20:27:02.612Z,1.30
2019-03-22T20:29:30.728Z,1.37
2019-03-22T20:31:59.127Z,1.77
2019-03-22T20:34:27.477Z,1.13
2019-03-22T20:36:55.781Z,1.20
2019-03-22T20:39:24.184Z,1.10
2019-03-22T20:41:52.684Z,1.47
2019-03-22T20:44:21.004Z,1.60
2019-03-22T20:46:49.346Z,1.30
2019-03-22T20:49:17.764Z,0.90
2019-03-22T20:51:46.094Z,1.23
2019-03-22T20:54:14.577Z,1.50
2019-03-22T20:56:42.908Z,1.07
2019-03-22T20:59:11.232Z,1.07
2019-03-22T21:01:39.668Z,1.10
2019-03-22T21:04:08.005Z,0.97
2019-03-22T21:06:36.132Z,1.20
2019-03-22T21:09:05.136Z,0.80
2019-03-22T21:11:33.434Z,1.00
2019-03-22T21:14:02.183Z,1.03
2019-03-22T21:16:30.536Z,1.10
2019-03-22T21:18:58.852Z,1.00
2019-03-22T21:21:35.981Z,1.53
2019-03-22T21:23:57.332Z,1.27
2019-03-22T21:26:25.646Z,1.10
2019-03-22T21:28:53.958Z,1.07
2019-03-22T21:31:22.276Z,1.10
2019-03-22T21:33:50.734Z,1.10
2019-03-22T21:36:19.076Z,0.93
2019-03-22T21:38:47.459Z,1.33
2019-03-22T21:41:15.773Z,1.30
2019-03-22T21:43:44.209Z,1.50
2019-03-22T21:46:12.521Z,1.07
2019-03-22T21:48:40.933Z,1.10
2019-03-22T21:51:09.347Z,1.10
2019-03-22T21:53:37.656Z,1.27
2019-03-22T21:56:06.152Z,1.27
2019-03-22T21:58:34.468Z,0.90
2019-03-22T22:01:02.581Z,0.90
2019-03-22T22:03:30.880Z,0.77
2019-03-22T22:05:58.998Z,1.00
2019-03-22T22:08:27.213Z,1.00
2019-03-22T22:10:59.740Z,0.87
2019-03-22T22:13:25.648Z,0.97
2019-03-22T22:15:54.051Z,0.90
2019-03-22T22:18:22.368Z,0.73
2019-03-22T22:20:50.774Z,0.80
2019-03-22T22:23:19.274Z,1.00
2019-03-22T22:25:47.328Z,0.80
2019-03-22T22:28:15.628Z,1.10
2019-03-22T22:30:43.952Z,0.83
2019-03-22T22:33:12.355Z,0.83
2019-03-22T22:35:40.777Z,1.20
2019-03-22T22:38:09.092Z,1.17
2019-03-22T22:40:37.220Z,1.00
2019-03-22T22:43:05.321Z,1.00
2019-03-22T22:45:33.432Z,0.80
2019-03-22T22:48:01.761Z,0.80
2019-03-22T22:50:30.091Z,0.90
2019-03-22T22:52:58.197Z,1.03
2019-03-22T22:55:26.567Z,0.90
2019-03-22T22:57:54.894Z,0.87
2019-03-22T23:00:25.176Z,1.00
2019-03-22T23:02:53.288Z,0.80
2019-03-22T23:05:21.656Z,1.03
2019-03-22T23:07:50.006Z,1.00
2019-03-22T23:10:18.319Z,0.93
2019-03-22T23:12:46.752Z,0.93
2019-03-22T23:15:14.771Z,0.83
2019-03-22T23:17:42.891Z,1.00
2019-03-22T23:20:11.546Z,0.90
2019-03-22T23:22:39.799Z,0.93
2019-03-22T23:25:09.515Z,1.07
2019-03-22T23:27:37.625Z,0.93
2019-03-22T23:30:06.172Z,0.90
2019-03-22T23:32:34.444Z,0.87
2019-03-22T23:35:02.727Z,0.90
2019-03-22T23:37:30.829Z,1.10
2019-03-22T23:39:58.844Z,0.87
2019-03-22T23:42:27.160Z,0.90
2019-03-22T23:44:55.596Z,0.90
2019-03-22T23:47:23.940Z,1.33
2019-03-22T23:49:52.347Z,1.07
2019-03-22T23:52:20.664Z,0.93
2019-03-22T23:54:49.067Z,1.23
2019-03-22T23:57:17.077Z,1.33
2019-03-22T23:59:45.212Z,1.10
